createdAt,value
2018-07-22T00:00:37.520Z,20.81
2018-07-22T00:03:41.293Z,20.81
2018-07-22T00:06:45.036Z,20.78
2018-07-22T00:09:48.618Z,20.80
2018-07-22T00:12:52.248Z,20.78
2018-07-22T00:15:56.123Z,20.84
2018-07-22T00:18:59.713Z,20.80
2018-07-22T00:22:03.412Z,20.84
2018-07-22T00:25:07.676Z,20.87
2018-07-22T00:28:11.223Z,20.89
2018-07-22T00:31:14.952Z,20.92
2018-07-22T00:34:18.608Z,20.92
2018-07-22T00:37:22.282Z,20.89
2018-07-22T00:40:26.088Z,20.96
2018-07-22T00:43:29.911Z,20.93
2018-07-22T00:46:33.589Z,20.99
2018-07-22T00:49:37.303Z,20.99
2018-07-22T00:52:41.174Z,21.06
2018-07-22T00:55:44.707Z,21.06
2018-07-22T00:58:48.732Z,21.09
2018-07-22T01:01:52.313Z,21.14
2018-07-22T01:04:55.922Z,21.02
2018-07-22T01:07:59.482Z,21.07
2018-07-22T01:11:03.271Z,20.96
2018-07-22T01:14:07.122Z,20.95
2018-07-22T01:17:10.833Z,20.92
2018-07-22T01:20:14.422Z,20.87
2018-07-22T01:23:18.247Z,20.87
2018-07-22T01:26:21.807Z,20.87
2018-07-22T01:29:25.441Z,20.85
2018-07-22T01:32:29.096Z,20.85
2018-07-22T01:35:32.732Z,20.88
2018-07-22T01:38:36.460Z,20.80
2018-07-22T01:41:40.373Z,20.79
2018-07-22T01:44:44.054Z,20.77
2018-07-22T01:47:47.683Z,20.75
2018-07-22T01:50:51.257Z,20.69
2018-07-22T01:53:54.875Z,20.73
2018-07-22T01:56:58.502Z,20.72
2018-07-22T02:00:02.084Z,20.69
2018-07-22T02:03:05.999Z,20.64
2018-07-22T02:06:09.666Z,20.62
2018-07-22T02:09:13.338Z,20.56
2018-07-22T02:12:17.254Z,20.56
2018-07-22T02:15:21.112Z,20.49
2018-07-22T02:18:24.763Z,20.47
2018-07-22T02:21:29.483Z,20.50
2018-07-22T02:24:33.106Z,20.44
2018-07-22T02:27:36.678Z,20.41
2018-07-22T02:30:40.320Z,20.32
2018-07-22T02:33:50.549Z,20.28
2018-07-22T02:36:54.202Z,20.33
2018-07-22T02:39:57.872Z,20.30
2018-07-22T02:43:01.711Z,20.35
2018-07-22T02:46:05.418Z,20.28
2018-07-22T02:49:09.069Z,20.15
2018-07-22T02:52:12.717Z,20.14
2018-07-22T02:55:16.304Z,20.17
2018-07-22T02:58:20.002Z,20.15
2018-07-22T03:01:23.663Z,20.13
2018-07-22T03:04:27.219Z,20.05
2018-07-22T03:07:30.883Z,20.07
2018-07-22T03:10:34.615Z,20.09
2018-07-22T03:13:38.193Z,19.99
2018-07-22T03:16:41.877Z,19.96
2018-07-22T03:19:45.474Z,19.95
2018-07-22T03:22:49.099Z,19.86
2018-07-22T03:25:52.834Z,19.89
2018-07-22T03:28:56.489Z,19.86
2018-07-22T03:32:00.163Z,19.81
2018-07-22T03:35:03.804Z,19.84
2018-07-22T03:38:07.393Z,19.81
2018-07-22T03:41:11.013Z,19.80
2018-07-22T03:44:14.659Z,19.81
2018-07-22T03:47:18.303Z,19.83
2018-07-22T03:50:22.000Z,19.85
2018-07-22T03:53:25.618Z,19.88
2018-07-22T03:56:29.282Z,19.88
2018-07-22T03:59:32.830Z,19.96
2018-07-22T04:02:36.704Z,19.87
2018-07-22T04:05:40.381Z,19.89
2018-07-22T04:08:43.939Z,19.92
2018-07-22T04:11:47.496Z,19.96
2018-07-22T04:14:51.241Z,19.95
2018-07-22T04:17:54.828Z,19.88
2018-07-22T04:20:58.489Z,19.91
2018-07-22T04:24:02.230Z,19.85
2018-07-22T04:27:05.760Z,19.87
2018-07-22T04:30:09.326Z,19.85
2018-07-22T04:33:12.965Z,19.90
2018-07-22T04:36:16.546Z,19.92
2018-07-22T04:39:20.135Z,19.89
2018-07-22T04:42:23.806Z,19.83
2018-07-22T04:45:27.616Z,19.87
2018-07-22T04:48:31.384Z,19.95
2018-07-22T04:51:35.043Z,19.92
2018-07-22T04:54:38.729Z,19.97
2018-07-22T04:57:42.375Z,19.95
2018-07-22T05:00:45.926Z,19.85
2018-07-22T05:03:49.754Z,19.83
2018-07-22T05:06:53.423Z,19.88
2018-07-22T05:09:57.138Z,20.02
2018-07-22T05:13:00.776Z,19.98
2018-07-22T05:16:04.372Z,20.00
2018-07-22T05:19:08.294Z,20.00
2018-07-22T05:22:11.939Z,19.94
2018-07-22T05:25:15.624Z,19.90
2018-07-22T05:28:19.179Z,19.91
2018-07-22T05:31:22.939Z,19.99
2018-07-22T05:34:26.692Z,20.05
2018-07-22T05:37:30.385Z,20.02
2018-07-22T05:40:34.006Z,20.10
2018-07-22T05:43:37.799Z,19.97
2018-07-22T05:46:41.359Z,20.09
2018-07-22T05:49:44.979Z,20.19
2018-07-22T05:52:48.594Z,20.26
2018-07-22T05:55:52.151Z,20.26
2018-07-22T05:58:55.692Z,20.07
2018-07-22T06:01:59.397Z,20.07
2018-07-22T06:05:02.961Z,20.05
2018-07-22T06:08:06.990Z,20.10
2018-07-22T06:11:10.590Z,20.24
2018-07-22T06:14:14.279Z,20.17
2018-07-22T06:17:17.819Z,20.30
2018-07-22T06:20:21.408Z,20.29
2018-07-22T06:23:25.191Z,20.37
2018-07-22T06:26:28.985Z,20.45
2018-07-22T06:29:32.721Z,20.45
2018-07-22T06:32:36.312Z,20.48
2018-07-22T06:35:39.841Z,20.44
2018-07-22T06:38:43.531Z,20.62
2018-07-22T06:41:47.170Z,20.64
2018-07-22T06:44:50.957Z,20.75
2018-07-22T06:47:54.515Z,20.66
2018-07-22T06:50:58.117Z,21.13
2018-07-22T06:54:01.707Z,21.62
2018-07-22T06:57:05.386Z,21.93
2018-07-22T07:00:09.036Z,22.63
2018-07-22T07:03:12.682Z,22.37
2018-07-22T07:06:16.268Z,22.40
2018-07-22T07:09:19.923Z,22.79
2018-07-22T07:12:23.541Z,22.42
2018-07-22T07:15:27.152Z,22.24
2018-07-22T07:18:30.816Z,22.25
2018-07-22T07:21:34.475Z,21.95
2018-07-22T07:24:38.233Z,22.20
2018-07-22T07:27:41.863Z,21.73
2018-07-22T07:30:45.574Z,22.03
2018-07-22T07:33:49.188Z,22.49
2018-07-22T07:36:52.800Z,22.21
2018-07-22T07:39:56.556Z,22.35
2018-07-22T07:43:00.148Z,21.99
2018-07-22T07:46:03.908Z,22.52
2018-07-22T07:49:07.621Z,22.61
2018-07-22T07:52:11.259Z,22.96
2018-07-22T07:55:14.873Z,22.90
2018-07-22T07:58:18.547Z,22.85
2018-07-22T08:01:22.097Z,22.63
2018-07-22T08:04:25.826Z,22.96
2018-07-22T08:07:29.488Z,23.39
2018-07-22T08:10:33.146Z,23.44
2018-07-22T08:13:36.906Z,23.39
2018-07-22T08:16:40.573Z,23.40
2018-07-22T08:19:44.205Z,23.82
2018-07-22T08:22:47.811Z,23.88
2018-07-22T08:25:51.548Z,23.30
2018-07-22T08:29:34.297Z,23.09
2018-07-22T08:32:38.937Z,22.80
2018-07-22T08:35:42.666Z,23.08
2018-07-22T08:38:46.746Z,22.56
2018-07-22T08:41:51.176Z,22.63
2018-07-22T08:44:54.848Z,22.29
2018-07-22T08:47:58.492Z,22.54
2018-07-22T08:51:02.087Z,23.27
2018-07-22T08:54:05.921Z,23.68
2018-07-22T08:57:09.814Z,23.65
2018-07-22T09:00:13.538Z,24.02
2018-07-22T09:03:17.164Z,24.36
2018-07-22T09:06:20.879Z,24.12
2018-07-22T09:09:24.601Z,24.32
2018-07-22T09:12:28.237Z,24.49
2018-07-22T09:15:31.889Z,24.82
2018-07-22T09:18:35.705Z,25.03
2018-07-22T09:21:39.375Z,25.58
2018-07-22T09:24:43.139Z,25.07
2018-07-22T09:27:46.724Z,25.37
2018-07-22T09:30:50.464Z,25.18
2018-07-22T09:33:54.099Z,25.65
2018-07-22T09:36:57.842Z,25.13
2018-07-22T09:40:01.547Z,25.23
2018-07-22T09:43:05.152Z,25.14
2018-07-22T09:46:08.806Z,25.01
2018-07-22T09:49:12.412Z,24.99
2018-07-22T09:52:16.066Z,24.83
2018-07-22T09:55:19.753Z,24.98
2018-07-22T09:58:23.381Z,25.24
2018-07-22T10:01:26.995Z,25.27
2018-07-22T10:04:30.725Z,25.05
2018-07-22T10:07:34.303Z,25.56
2018-07-22T10:10:38.088Z,25.25
2018-07-22T10:13:41.658Z,25.38
2018-07-22T10:16:45.379Z,25.67
2018-07-22T10:19:49.005Z,25.63
2018-07-22T10:22:52.662Z,26.15
2018-07-22T10:25:56.423Z,25.50
2018-07-22T10:29:02.016Z,25.62
2018-07-22T10:32:05.947Z,25.76
2018-07-22T10:35:10.445Z,25.81
2018-07-22T10:38:17.830Z,26.20
2018-07-22T10:41:23.647Z,26.02
2018-07-22T10:44:27.295Z,25.73
2018-07-22T10:47:30.969Z,25.79
2018-07-22T10:50:35.310Z,26.35
2018-07-22T10:53:39.055Z,26.45
2018-07-22T10:56:42.833Z,26.20
2018-07-22T10:59:46.597Z,26.21
2018-07-22T11:02:50.328Z,26.17
2018-07-22T11:05:54.076Z,25.89
2018-07-22T11:08:57.744Z,26.17
2018-07-22T11:12:01.389Z,26.36
2018-07-22T11:15:06.280Z,26.49
2018-07-22T11:18:10.077Z,26.55
2018-07-22T11:21:13.786Z,26.78
2018-07-22T11:24:17.836Z,26.52
2018-07-22T11:27:21.573Z,26.79
2018-07-22T11:30:25.198Z,26.85
2018-07-22T11:33:28.896Z,26.58
2018-07-22T11:36:32.461Z,26.98
2018-07-22T11:39:36.081Z,27.00
2018-07-22T11:42:39.728Z,27.11
2018-07-22T11:45:43.350Z,27.36
2018-07-22T11:48:46.920Z,26.92
2018-07-22T11:51:50.547Z,27.12
2018-07-22T11:54:54.238Z,27.42
2018-07-22T11:57:57.866Z,27.14
2018-07-22T12:01:01.505Z,27.26
2018-07-22T12:04:05.258Z,27.39
2018-07-22T12:07:08.845Z,27.21
2018-07-22T12:10:12.425Z,27.57
2018-07-22T12:13:16.066Z,27.26
2018-07-22T12:16:19.749Z,26.96
2018-07-22T12:19:23.434Z,27.24
2018-07-22T12:22:27.150Z,27.27
2018-07-22T12:25:37.503Z,26.91
2018-07-22T12:28:43.178Z,26.99
2018-07-22T12:31:47.708Z,27.28
2018-07-22T12:35:13.854Z,27.19
2018-07-22T12:38:17.728Z,27.30
2018-07-22T12:41:21.367Z,27.22
2018-07-22T12:44:25.081Z,27.54
2018-07-22T12:47:29.767Z,27.88
2018-07-22T12:50:34.233Z,28.13
2018-07-22T12:53:37.703Z,27.46
2018-07-22T12:56:41.369Z,27.73
2018-07-22T12:59:45.000Z,27.74
2018-07-22T13:02:48.713Z,27.76
2018-07-22T13:05:52.355Z,27.98
2018-07-22T13:08:56.045Z,27.81
2018-07-22T13:11:59.766Z,27.90
2018-07-22T13:15:03.596Z,28.09
2018-07-22T13:18:07.299Z,28.21
2018-07-22T13:21:11.112Z,28.29
2018-07-22T13:24:14.926Z,28.23
2018-07-22T13:27:18.603Z,28.27
2018-07-22T13:30:22.375Z,28.33
2018-07-22T13:33:26.002Z,28.54
2018-07-22T13:36:29.652Z,27.56
2018-07-22T13:39:33.256Z,27.73
2018-07-22T13:42:36.985Z,27.55
2018-07-22T13:45:40.582Z,27.53
2018-07-22T13:48:44.231Z,28.23
2018-07-22T13:51:47.831Z,28.63
2018-07-22T13:54:51.499Z,27.84
2018-07-22T13:57:55.337Z,27.75
2018-07-22T14:00:58.901Z,27.68
2018-07-22T14:04:02.677Z,27.38
2018-07-22T14:07:06.507Z,27.51
2018-07-22T14:10:10.136Z,27.05
2018-07-22T14:13:13.836Z,26.98
2018-07-22T14:16:17.510Z,27.66
2018-07-22T14:19:21.252Z,27.58
2018-07-22T14:22:24.996Z,28.04
2018-07-22T14:25:28.836Z,28.17
2018-07-22T14:28:32.490Z,27.80
2018-07-22T14:31:36.261Z,27.19
2018-07-22T14:34:39.911Z,26.99
2018-07-22T14:37:43.619Z,26.65
2018-07-22T14:40:47.341Z,27.17
2018-07-22T14:43:51.055Z,26.96
2018-07-22T14:46:54.801Z,27.08
2018-07-22T14:50:01.285Z,27.22
2018-07-22T14:53:04.971Z,27.58
2018-07-22T14:56:08.625Z,27.43
2018-07-22T14:59:12.363Z,27.70
2018-07-22T15:02:16.044Z,27.20
2018-07-22T15:05:19.947Z,27.26
2018-07-22T15:08:23.735Z,27.45
2018-07-22T15:11:27.298Z,27.93
2018-07-22T15:14:31.075Z,27.30
2018-07-22T15:17:34.676Z,27.24
2018-07-22T15:20:38.312Z,27.56
2018-07-22T15:23:42.140Z,27.82
2018-07-22T15:26:45.813Z,27.81
2018-07-22T15:29:49.507Z,27.52
2018-07-22T15:32:53.293Z,27.45
2018-07-22T15:35:56.894Z,27.73
2018-07-22T15:39:00.712Z,27.98
2018-07-22T15:42:04.353Z,27.94
2018-07-22T15:45:07.995Z,27.89
2018-07-22T15:48:11.842Z,27.46
2018-07-22T15:51:15.415Z,27.53
2018-07-22T15:54:19.111Z,26.94
2018-07-22T15:57:22.801Z,27.02
2018-07-22T16:00:26.432Z,27.45
2018-07-22T16:03:30.062Z,27.78
2018-07-22T16:06:33.732Z,27.87
2018-07-22T16:09:37.557Z,27.41
2018-07-22T16:12:41.190Z,27.58
2018-07-22T16:15:44.924Z,26.95
2018-07-22T16:18:48.610Z,26.80
2018-07-22T16:21:59.641Z,27.15
2018-07-22T16:25:04.690Z,27.25
2018-07-22T16:28:08.443Z,27.21
2018-07-22T16:31:12.100Z,27.36
2018-07-22T16:34:16.581Z,27.26
2018-07-22T16:37:20.279Z,27.41
2018-07-22T16:40:24.056Z,27.37
2018-07-22T16:43:27.764Z,27.43
2018-07-22T16:46:31.324Z,27.57
2018-07-22T16:49:34.924Z,27.57
2018-07-22T16:52:38.523Z,27.46
2018-07-22T16:55:42.189Z,27.35
2018-07-22T16:58:45.885Z,27.22
2018-07-22T17:01:49.636Z,27.41
2018-07-22T17:04:53.365Z,27.30
2018-07-22T17:07:57.101Z,27.07
2018-07-22T17:11:00.759Z,26.91
2018-07-22T17:14:04.484Z,26.95
2018-07-22T17:17:08.185Z,27.17
2018-07-22T17:20:11.847Z,27.47
2018-07-22T17:23:15.721Z,27.86
2018-07-22T17:26:19.473Z,27.90
2018-07-22T17:29:23.214Z,28.64
2018-07-22T17:32:26.841Z,28.17
2018-07-22T17:35:30.672Z,28.13
2018-07-22T17:38:34.435Z,28.75
2018-07-22T17:41:38.786Z,28.13
2018-07-22T17:44:42.508Z,27.70
2018-07-22T17:47:46.185Z,26.56
2018-07-22T17:50:49.825Z,26.51
2018-07-22T17:53:53.707Z,26.70
2018-07-22T17:56:57.428Z,26.38
2018-07-22T18:00:01.138Z,26.57
2018-07-22T18:03:26.608Z,26.82
2018-07-22T18:06:30.334Z,26.37
2018-07-22T18:09:34.102Z,26.48
2018-07-22T18:12:37.768Z,26.76
2018-07-22T18:15:41.391Z,26.72
2018-07-22T18:18:45.272Z,26.36
2018-07-22T18:21:48.814Z,26.67
2018-07-22T18:24:52.714Z,26.20
2018-07-22T18:27:56.365Z,26.19
2018-07-22T18:31:00.154Z,25.66
2018-07-22T18:34:03.826Z,25.24
2018-07-22T18:37:07.832Z,24.79
2018-07-22T18:40:11.437Z,24.95
2018-07-22T18:43:15.338Z,24.82
2018-07-22T18:46:19.028Z,24.69
2018-07-22T18:49:22.915Z,24.63
2018-07-22T18:52:27.072Z,24.23
2018-07-22T18:55:30.964Z,24.19
2018-07-22T18:58:35.120Z,24.21
2018-07-22T19:01:39.117Z,24.15
2018-07-22T19:04:42.841Z,23.98
2018-07-22T19:07:46.918Z,23.94
2018-07-22T19:10:50.994Z,23.88
2018-07-22T19:13:55.060Z,23.92
2018-07-22T19:16:59.139Z,23.76
2018-07-22T19:20:03.093Z,23.66
2018-07-22T19:23:07.098Z,23.65
2018-07-22T19:26:11.173Z,23.45
2018-07-22T19:29:15.185Z,23.31
2018-07-22T19:32:19.173Z,23.23
2018-07-22T19:35:23.137Z,23.13
2018-07-22T19:38:27.112Z,22.99
2018-07-22T19:41:31.095Z,22.88
2018-07-22T19:44:35.272Z,22.77
2018-07-22T19:47:39.349Z,22.71
2018-07-22T19:50:43.306Z,22.60
2018-07-22T19:53:47.238Z,22.50
2018-07-22T19:56:51.306Z,22.38
2018-07-22T19:59:55.344Z,22.27
2018-07-22T20:02:59.266Z,22.20
2018-07-22T20:06:03.341Z,22.09
2018-07-22T20:09:08.615Z,21.98
2018-07-22T20:12:12.595Z,21.90
2018-07-22T20:15:16.525Z,21.81
2018-07-22T20:18:20.558Z,21.82
2018-07-22T20:21:24.625Z,21.77
2018-07-22T20:24:28.844Z,21.77
2018-07-22T20:27:32.464Z,21.69
2018-07-22T20:30:36.346Z,21.67
2018-07-22T20:33:40.374Z,21.60
2018-07-22T20:36:44.121Z,21.60
2018-07-22T20:39:48.213Z,21.57
2018-07-22T20:42:51.946Z,21.52
2018-07-22T20:45:55.574Z,21.47
2018-07-22T20:48:59.392Z,21.45
2018-07-22T20:52:03.284Z,21.39
2018-07-22T20:55:07.026Z,21.35
2018-07-22T20:58:10.966Z,21.34
2018-07-22T21:01:14.675Z,21.27
2018-07-22T21:04:18.390Z,21.21
2018-07-22T21:07:22.055Z,21.11
2018-07-22T21:10:25.726Z,21.10
2018-07-22T21:13:29.354Z,21.02
2018-07-22T21:16:33.090Z,20.96
2018-07-22T21:19:36.771Z,20.93
2018-07-22T21:22:40.508Z,20.89
2018-07-22T21:25:44.247Z,20.84
2018-07-22T21:28:47.950Z,20.78
2018-07-22T21:31:51.676Z,20.72
2018-07-22T21:34:55.315Z,20.69
2018-07-22T21:37:59.096Z,20.65
2018-07-22T21:41:02.866Z,20.50
2018-07-22T21:44:06.532Z,20.50
2018-07-22T21:47:10.676Z,20.49
2018-07-22T21:50:14.223Z,20.42
2018-07-22T21:53:17.913Z,20.33
2018-07-22T21:56:21.514Z,20.31
2018-07-22T21:59:25.117Z,20.17
2018-07-22T22:02:32.815Z,20.33
2018-07-22T22:05:36.493Z,20.32
2018-07-22T22:08:40.085Z,20.37
2018-07-22T22:11:43.968Z,20.37
2018-07-22T22:14:47.652Z,20.31
2018-07-22T22:17:51.527Z,20.25
2018-07-22T22:20:55.342Z,20.13
2018-07-22T22:23:59.266Z,20.00
2018-07-22T22:27:02.911Z,19.86
2018-07-22T22:30:06.562Z,19.83
2018-07-22T22:33:10.206Z,19.82
2018-07-22T22:36:13.857Z,19.79
2018-07-22T22:39:17.575Z,19.79
2018-07-22T22:42:21.155Z,19.74
2018-07-22T22:45:24.860Z,19.69
2018-07-22T22:48:28.436Z,19.66
2018-07-22T22:51:32.189Z,19.65
2018-07-22T22:54:35.816Z,19.67
2018-07-22T22:57:39.896Z,19.62
2018-07-22T23:00:43.520Z,19.61
2018-07-22T23:03:47.291Z,19.54
2018-07-22T23:06:50.887Z,19.50
2018-07-22T23:09:54.454Z,19.45
2018-07-22T23:12:58.256Z,19.33
2018-07-22T23:16:01.835Z,19.20
2018-07-22T23:19:05.736Z,19.04
2018-07-22T23:22:09.422Z,19.01
2018-07-22T23:25:13.231Z,18.95
2018-07-22T23:28:16.821Z,18.83
2018-07-22T23:31:20.382Z,18.84
2018-07-22T23:34:23.926Z,18.86
2018-07-22T23:37:27.492Z,18.89
2018-07-22T23:40:31.146Z,18.88
2018-07-22T23:43:34.755Z,18.89
2018-07-22T23:46:38.410Z,18.95
2018-07-22T23:49:41.957Z,18.98
2018-07-22T23:52:45.770Z,19.00
2018-07-22T23:55:49.450Z,19.01
2018-07-22T23:58:53.030Z,18.98
